Time;durP1;ratioP1;P1;durP2;ratioP2;P2;SDS_P1;SDS_P2;PMS_P1;PMS_P2;Temp;Humidity;BMP_temperature;BMP_pressure;BME280_temperature;BME280_humidity;BME280_pressure;Samples;Min_cycle;Max_cycle;Signal;HPM_P1;HPM_P2
2022/11/09 00:01:18;;;;;;;;;;;;;;;13.54;65.48;100184.91;5079392;28;19948;-63
2022/11/09 00:03:44;;;;;;;;;;;;;;;13.48;65.60;100182.47;5069380;28;19936;-63
2022/11/09 00:06:09;;;;;;;;;;;;;;;13.50;65.39;100183.28;5075655;28;19924;-63
2022/11/09 00:08:38;;;;;;;;;;;;;;;13.46;65.48;100189.59;5076891;28;19925;-63
2022/11/09 00:11:07;;;;;;;;;;;;;;;13.49;65.50;100193.00;5075433;28;19924;-62
2022/11/09 00:13:40;;;;;;;;;;;;;;;13.45;65.62;100188.75;5075938;28;19987;-64
2022/11/09 00:16:06;;;;;;;;;;;;;;;13.46;65.66;100190.47;5081243;28;20018;-64
2022/11/09 00:18:33;;;;;;;;;;;;;;;13.44;65.57;100187.00;5075623;28;20424;-64
2022/11/09 00:21:03;;;;;;;;;;;;;;;13.39;65.69;100194.22;5079222;28;19928;-64
2022/11/09 00:23:29;;;;;;;;;;;;;;;13.37;65.51;100185.53;5076511;28;19978;-63
2022/11/09 00:25:58;;;;;;;;;;;;;;;13.30;65.77;100189.28;5077490;28;20387;-63
2022/11/09 00:28:23;;;;;;;;;;;;;;;13.35;65.80;100197.91;5076680;28;20015;-64
2022/11/09 00:30:49;;;;;;;;;;;;;;;13.36;65.86;100175.00;5081171;28;20365;-63
2022/11/09 00:33:14;;;;;;;;;;;;;;;13.34;65.77;100171.56;5079507;28;19924;-64
2022/11/09 00:35:39;;;;;;;;;;;;;;;13.21;66.17;100176.41;5075573;28;19924;-63
2022/11/09 00:38:04;;;;;;;;;;;;;;;13.28;65.79;100180.56;5083536;28;19924;-64
2022/11/09 00:40:30;;;;;;;;;;;;;;;13.25;65.82;100180.69;5076304;28;19970;-63
2022/11/09 00:42:55;;;;;;;;;;;;;;;13.30;65.79;100184.00;5078725;28;19924;-64
2022/11/09 00:45:20;;;;;;;;;;;;;;;13.30;65.73;100179.59;5076376;28;19925;-63
2022/11/09 00:47:45;;;;;;;;;;;;;;;13.28;65.73;100185.84;5076456;28;20372;-63
2022/11/09 00:50:10;;;;;;;;;;;;;;;13.25;65.71;100181.53;5074026;28;19993;-63
2022/11/09 00:52:36;;;;;;;;;;;;;;;13.23;65.82;100179.88;5075964;28;19928;-63
2022/11/09 00:55:01;;;;;;;;;;;;;;;13.25;65.68;100181.53;5075546;28;20007;-64
2022/11/09 00:57:26;;;;;;;;;;;;;;;13.21;65.93;100179.03;5074915;28;19924;-63
2022/11/09 00:59:52;;;;;;;;;;;;;;;13.14;66.08;100177.53;5074645;28;20453;-62
2022/11/09 01:02:18;;;;;;;;;;;;;;;13.22;65.69;100175.47;5074426;28;19925;-63
2022/11/09 01:04:43;;;;;;;;;;;;;;;13.23;65.59;100172.81;5075950;28;19928;-63
2022/11/09 01:07:08;;;;;;;;;;;;;;;13.17;65.69;100172.16;5075629;28;20508;-64
2022/11/09 01:09:34;;;;;;;;;;;;;;;13.16;65.94;100175.69;5080006;28;19944;-65
2022/11/09 01:11:59;;;;;;;;;;;;;;;13.15;65.91;100174.81;5076207;28;19928;-64
2022/11/09 01:14:24;;;;;;;;;;;;;;;13.17;65.79;100169.53;5088309;28;19924;-64
2022/11/09 01:16:49;;;;;;;;;;;;;;;13.16;65.69;100166.00;5075355;28;20371;-63
2022/11/09 01:19:15;;;;;;;;;;;;;;;13.15;65.82;100166.91;5072854;28;19970;-63
2022/11/09 01:21:40;;;;;;;;;;;;;;;13.18;65.75;100161.53;5075755;28;19920;-62
2022/11/09 01:24:05;;;;;;;;;;;;;;;13.18;65.78;100152.75;5075316;28;20100;-63
2022/11/09 01:26:31;;;;;;;;;;;;;;;13.22;65.59;100157.88;5075627;28;19970;-63
2022/11/09 01:28:56;;;;;;;;;;;;;;;13.23;65.46;100149.06;5076865;28;20261;-64
2022/11/09 01:31:22;;;;;;;;;;;;;;;13.30;65.38;100147.06;5074522;28;19925;-63
2022/11/09 01:33:47;;;;;;;;;;;;;;;13.25;65.60;100149.88;5076029;28;19942;-63
2022/11/09 01:36:14;;;;;;;;;;;;;;;13.35;65.43;100154.81;5073924;28;19925;-64
2022/11/09 01:38:40;;;;;;;;;;;;;;;13.36;65.07;100161.81;5085409;28;19920;-63
2022/11/09 01:41:06;;;;;;;;;;;;;;;13.43;65.01;100152.75;5075097;28;19972;-63
2022/11/09 01:43:31;;;;;;;;;;;;;;;13.45;64.88;100164.13;5075300;28;19987;-64
2022/11/09 01:46:04;;;;;;;;;;;;;;;13.42;64.89;100161.59;5076705;28;19932;-63
2022/11/09 01:48:33;;;;;;;;;;;;;;;13.48;64.80;100151.66;5072168;28;19932;-64
2022/11/09 01:51:01;;;;;;;;;;;;;;;13.48;64.80;100146.38;5073160;28;19927;-64
2022/11/09 01:53:29;;;;;;;;;;;;;;;13.48;64.77;100149.03;5072932;28;19950;-64
2022/11/09 01:55:56;;;;;;;;;;;;;;;13.47;64.59;100152.59;5076590;28;19974;-63
2022/11/09 01:58:24;;;;;;;;;;;;;;;13.52;64.56;100150.66;5073866;28;19920;-63
2022/11/09 02:00:50;;;;;;;;;;;;;;;13.50;64.57;100149.84;5074285;28;20482;-63
2022/11/09 02:03:25;;;;;;;;;;;;;;;13.53;64.51;100144.44;5075490;28;20006;-64
2022/11/09 02:05:50;;;;;;;;;;;;;;;13.50;64.39;100164.81;5077507;28;19967;-64
2022/11/09 02:08:17;;;;;;;;;;;;;;;13.47;64.76;100165.78;5079479;28;19955;-65
2022/11/09 02:11:01;;;;;;;;;;;;;;;13.48;64.68;100169.28;5078223;28;19999;-62
2022/11/09 02:13:28;;;;;;;;;;;;;;;13.46;64.72;100161.44;5078517;28;19920;-65
2022/11/09 02:15:53;;;;;;;;;;;;;;;13.35;65.42;100162.75;5078874;28;20022;-64
2022/11/09 02:18:19;;;;;;;;;;;;;;;13.38;65.10;100160.84;5078815;28;20027;-64
2022/11/09 02:20:54;;;;;;;;;;;;;;;13.27;64.93;100160.38;5077168;28;19921;-64
2022/11/09 02:23:20;;;;;;;;;;;;;;;13.44;64.91;100149.19;5079095;28;19923;-65
2022/11/09 02:25:50;;;;;;;;;;;;;;;13.44;64.80;100150.06;5078919;28;19928;-64
2022/11/09 02:28:15;;;;;;;;;;;;;;;13.41;64.66;100155.47;5085841;28;20283;-65
2022/11/09 02:30:42;;;;;;;;;;;;;;;13.43;64.89;100156.25;5087522;28;19928;-63
2022/11/09 02:33:07;;;;;;;;;;;;;;;13.47;64.42;100160.50;5085828;28;19931;-65
2022/11/09 02:35:32;;;;;;;;;;;;;;;13.33;64.51;100156.66;5093003;28;19920;-64
2022/11/09 02:37:57;;;;;;;;;;;;;;;13.33;64.75;100156.66;5078250;28;19925;-64
2022/11/09 02:40:25;;;;;;;;;;;;;;;13.41;64.57;100144.91;5088872;28;19924;-64
2022/11/09 02:42:51;;;;;;;;;;;;;;;13.45;64.40;100146.53;5075241;28;19916;-65
2022/11/09 02:45:17;;;;;;;;;;;;;;;13.43;64.46;100148.34;5092821;28;19920;-65
2022/11/09 02:47:42;;;;;;;;;;;;;;;13.47;64.34;100142.03;5089829;28;19982;-65
2022/11/09 02:50:07;;;;;;;;;;;;;;;13.50;64.26;100138.41;5076271;28;19924;-64
2022/11/09 02:52:33;;;;;;;;;;;;;;;13.51;64.29;100134.84;5077107;28;19938;-64
2022/11/09 02:54:58;;;;;;;;;;;;;;;13.47;64.31;100142.03;5084608;28;19930;-64
2022/11/09 02:57:23;;;;;;;;;;;;;;;13.52;64.52;100142.75;5082298;28;20019;-63
2022/11/09 02:59:48;;;;;;;;;;;;;;;13.47;64.20;100146.44;5088061;28;20379;-63
2022/11/09 03:02:14;;;;;;;;;;;;;;;13.45;64.27;100145.66;5082136;28;19920;-64
2022/11/09 03:04:39;;;;;;;;;;;;;;;13.44;64.43;100152.69;5078395;28;20380;-64
2022/11/09 03:07:04;;;;;;;;;;;;;;;13.42;64.28;100161.59;5074765;28;20299;-64
2022/11/09 03:09:29;;;;;;;;;;;;;;;13.46;64.27;100153.50;5076802;28;19930;-64
2022/11/09 03:11:55;;;;;;;;;;;;;;;13.46;64.27;100155.28;5081774;28;20387;-64
2022/11/09 03:14:20;;;;;;;;;;;;;;;13.40;64.52;100159.00;5080656;28;19920;-64
2022/11/09 03:16:45;;;;;;;;;;;;;;;13.28;64.63;100149.78;5074674;28;20010;-65
2022/11/09 03:19:10;;;;;;;;;;;;;;;13.39;64.52;100157.28;5074541;28;19921;-64
2022/11/09 03:21:36;;;;;;;;;;;;;;;13.39;64.55;100149.38;5075937;28;19920;-64
2022/11/09 03:24:01;;;;;;;;;;;;;;;13.37;64.72;100153.84;5075623;28;19917;-64
2022/11/09 03:26:26;;;;;;;;;;;;;;;13.33;64.50;100154.03;5074512;28;20287;-65
2022/11/09 03:28:51;;;;;;;;;;;;;;;13.33;64.58;100159.31;5074428;28;20037;-64
2022/11/09 03:31:17;;;;;;;;;;;;;;;13.23;64.63;100143.78;5075188;28;19920;-64
2022/11/09 03:33:42;;;;;;;;;;;;;;;13.26;64.59;100140.19;5074505;28;19978;-64
2022/11/09 03:36:07;;;;;;;;;;;;;;;13.26;64.72;100141.03;5074626;28;19916;-64
2022/11/09 03:38:33;;;;;;;;;;;;;;;13.26;64.51;100142.81;5075125;28;19921;-63
2022/11/09 03:40:59;;;;;;;;;;;;;;;13.20;64.72;100135.94;5074371;28;19966;-62
2022/11/09 03:43:24;;;;;;;;;;;;;;;13.22;64.73;100128.84;5075145;28;19921;-62
2022/11/09 03:45:50;;;;;;;;;;;;;;;13.15;64.68;100131.75;5075090;28;19927;-63
2022/11/09 03:48:15;;;;;;;;;;;;;;;13.16;64.68;100134.34;5106916;28;19978;-63
2022/11/09 03:50:40;;;;;;;;;;;;;;;13.19;64.77;100136.00;5072823;28;20007;-63
2022/11/09 03:53:07;;;;;;;;;;;;;;;13.20;64.55;100140.38;5074677;28;19963;-63
2022/11/09 03:55:32;;;;;;;;;;;;;;;13.12;65.25;100134.50;5071919;28;19968;-63
2022/11/09 03:57:57;;;;;;;;;;;;;;;13.12;64.67;100123.94;5073931;28;20362;-63
2022/11/09 04:00:23;;;;;;;;;;;;;;;13.13;64.72;100130.97;5090751;28;19920;-63
2022/11/09 04:02:48;;;;;;;;;;;;;;;13.10;64.60;100136.34;5074670;28;19946;-63
2022/11/09 04:05:14;;;;;;;;;;;;;;;13.05;64.70;100139.16;5078216;28;20014;-63
2022/11/09 04:07:39;;;;;;;;;;;;;;;13.03;64.92;100138.34;5078462;28;20399;-63
2022/11/09 04:10:05;;;;;;;;;;;;;;;12.99;64.93;100136.72;5077104;28;19959;-63
2022/11/09 04:12:30;;;;;;;;;;;;;;;12.92;65.20;100137.84;5075963;28;19946;-64
2022/11/09 04:14:55;;;;;;;;;;;;;;;12.91;65.21;100136.13;5075137;28;19921;-64
2022/11/09 04:17:21;;;;;;;;;;;;;;;12.89;65.35;100133.56;5072389;28;19987;-64
2022/11/09 04:19:46;;;;;;;;;;;;;;;12.81;65.56;100125.06;5073548;28;20383;-63
2022/11/09 04:22:11;;;;;;;;;;;;;;;12.80;65.68;100125.94;5065247;28;19924;-63
2022/11/09 04:24:36;;;;;;;;;;;;;;;12.90;65.29;100134.41;5074128;28;20398;-64
2022/11/09 04:27:02;;;;;;;;;;;;;;;12.88;65.23;100129.19;5074405;28;19921;-65
2022/11/09 04:29:27;;;;;;;;;;;;;;;12.85;65.22;100126.69;5074571;28;19923;-63
2022/11/09 04:31:52;;;;;;;;;;;;;;;12.87;65.24;100123.97;5071398;28;19920;-63
2022/11/09 04:34:18;;;;;;;;;;;;;;;12.86;65.28;100117.84;5077372;28;19931;-64
2022/11/09 04:36:43;;;;;;;;;;;;;;;12.90;65.19;100123.88;5075707;28;19972;-63
2022/11/09 04:39:08;;;;;;;;;;;;;;;12.92;65.24;100114.97;5084570;28;19920;-64
2022/11/09 04:41:34;;;;;;;;;;;;;;;12.93;64.98;100127.25;5077997;28;19924;-66
2022/11/09 04:43:59;;;;;;;;;;;;;;;12.91;64.99;100129.09;5073011;28;19926;-64
2022/11/09 04:46:25;;;;;;;;;;;;;;;12.96;64.92;100131.56;5078387;28;19927;-64
2022/11/09 04:48:50;;;;;;;;;;;;;;;12.95;65.04;100127.19;5083574;28;19978;-65
2022/11/09 04:51:16;;;;;;;;;;;;;;;12.95;65.04;100135.13;5073311;28;20353;-64
2022/11/09 04:53:41;;;;;;;;;;;;;;;12.94;65.00;100133.41;5078061;28;20291;-63
2022/11/09 04:56:06;;;;;;;;;;;;;;;12.92;65.20;100138.69;5079853;28;19933;-65
2022/11/09 04:58:31;;;;;;;;;;;;;;;12.91;65.03;100136.13;5085767;28;19924;-64
2022/11/09 05:01:04;;;;;;;;;;;;;;;12.90;65.23;100131.78;5075098;28;19986;-64
2022/11/09 05:03:30;;;;;;;;;;;;;;;12.90;65.20;100130.00;5077740;28;19927;-65
2022/11/09 05:05:55;;;;;;;;;;;;;;;12.91;64.93;100126.44;5076023;28;19920;-64
2022/11/09 05:08:20;;;;;;;;;;;;;;;12.96;65.22;100121.00;5078520;28;20009;-64
2022/11/09 05:10:46;;;;;;;;;;;;;;;12.90;64.80;100110.69;5075065;28;19924;-64
2022/11/09 05:13:12;;;;;;;;;;;;;;;12.85;64.70;100116.13;5074742;28;20017;-64
2022/11/09 05:15:37;;;;;;;;;;;;;;;12.82;65.20;100126.78;5089018;28;19936;-64
2022/11/09 05:18:03;;;;;;;;;;;;;;;12.74;65.07;100126.19;5077423;28;20375;-65
2022/11/09 05:20:28;;;;;;;;;;;;;;;12.68;65.02;100116.69;5066201;28;19929;-63
2022/11/09 05:25:38;;;;;;;;;;;;;;;12.61;65.29;100115.22;5076394;28;19932;-64
2022/11/09 05:28:03;;;;;;;;;;;;;;;12.49;65.62;100121.75;5077572;28;19928;-64
2022/11/09 05:30:28;;;;;;;;;;;;;;;12.48;65.60;100119.16;5070132;28;19931;-66
2022/11/09 05:32:54;;;;;;;;;;;;;;;12.46;65.67;100123.63;5077823;28;20261;-66
2022/11/09 05:35:19;;;;;;;;;;;;;;;12.65;65.28;100115.97;5074983;28;19924;-66
2022/11/09 05:37:48;;;;;;;;;;;;;;;12.75;64.71;100112.09;5074405;28;19924;-65
2022/11/09 05:40:14;;;;;;;;;;;;;;;12.70;64.80;100114.03;5076522;28;19928;-65
2022/11/09 05:42:40;;;;;;;;;;;;;;;12.74;64.90;100123.53;5072635;28;20015;-63
2022/11/09 05:45:06;;;;;;;;;;;;;;;12.57;64.84;100125.00;5114167;27;20028;-64
2022/11/09 05:47:35;;;;;;;;;;;;;;;12.38;65.74;100123.88;5075283;28;19935;-66
2022/11/09 05:50:00;;;;;;;;;;;;;;;12.31;66.11;100112.66;5068083;28;19932;-65
2022/11/09 05:52:25;;;;;;;;;;;;;;;12.27;66.50;100116.31;5078675;28;19931;-64
2022/11/09 05:54:51;;;;;;;;;;;;;;;12.22;66.08;100125.28;5076780;28;19913;-65
2022/11/09 05:57:16;;;;;;;;;;;;;;;12.16;66.22;100128.97;5076868;28;19920;-66
2022/11/09 05:59:41;;;;;;;;;;;;;;;12.14;66.12;100136.06;5076687;28;19920;-65
2022/11/09 06:02:06;;;;;;;;;;;;;;;12.08;66.08;100130.97;5076277;28;20287;-65
2022/11/09 06:04:32;;;;;;;;;;;;;;;12.05;66.34;100121.44;5077399;28;19925;-65
2022/11/09 06:06:57;;;;;;;;;;;;;;;11.98;66.28;100124.31;5073658;28;19920;-65
2022/11/09 06:09:22;;;;;;;;;;;;;;;11.94;66.19;100123.53;5075592;28;19933;-65
2022/11/09 06:11:48;;;;;;;;;;;;;;;11.93;66.49;100127.09;5109452;28;20021;-64
2022/11/09 06:14:14;;;;;;;;;;;;;;;11.92;66.33;100135.88;5076101;28;19916;-64
2022/11/09 06:16:39;;;;;;;;;;;;;;;11.89;66.68;100130.72;5074916;28;19920;-64
2022/11/09 06:19:04;;;;;;;;;;;;;;;11.89;66.63;100129.84;5075921;28;19974;-64
2022/11/09 06:21:29;;;;;;;;;;;;;;;11.89;66.78;100128.09;5074729;28;19927;-64
2022/11/09 06:23:55;;;;;;;;;;;;;;;11.91;67.05;100112.22;5075897;28;19921;-64
2022/11/09 06:26:20;;;;;;;;;;;;;;;11.97;66.71;100118.19;5073742;28;20379;-65
2022/11/09 06:28:45;;;;;;;;;;;;;;;12.06;66.56;100103.84;5076426;28;19925;-65
2022/11/09 06:31:12;;;;;;;;;;;;;;;12.11;66.47;100103.69;5074966;28;19920;-65
2022/11/09 06:33:37;;;;;;;;;;;;;;;12.14;66.24;100120.28;5076776;28;19990;-65
2022/11/09 06:36:03;;;;;;;;;;;;;;;12.19;66.14;100130.66;5076758;28;20359;-65
2022/11/09 06:38:34;;;;;;;;;;;;;;;12.25;66.01;100128.69;5076660;28;19924;-65
2022/11/09 06:40:59;;;;;;;;;;;;;;;12.35;65.77;100128.38;5076957;28;19920;-65
2022/11/09 06:43:25;;;;;;;;;;;;;;;12.38;65.73;100113.34;5076652;28;20269;-64
2022/11/09 06:45:51;;;;;;;;;;;;;;;12.41;65.59;100120.25;5078220;28;20299;-65
2022/11/09 06:48:16;;;;;;;;;;;;;;;12.52;65.46;100126.91;5077006;28;19971;-65
2022/11/09 06:50:42;;;;;;;;;;;;;;;12.55;65.17;100125.94;5076358;28;19999;-64
2022/11/09 06:53:09;;;;;;;;;;;;;;;12.56;65.40;100132.94;5076494;28;19920;-65
2022/11/09 06:55:35;;;;;;;;;;;;;;;12.63;64.88;100133.59;5078803;28;19916;-64
2022/11/09 06:58:04;;;;;;;;;;;;;;;12.55;64.92;100145.25;5077985;28;19938;-64
2022/11/09 07:00:29;;;;;;;;;;;;;;;12.49;64.73;100142.84;5076396;28;20287;-65
2022/11/09 07:02:55;;;;;;;;;;;;;;;12.50;65.74;100147.19;5075187;28;20395;-64
2022/11/09 07:05:20;;;;;;;;;;;;;;;12.36;65.40;100141.50;5076328;28;20394;-65
2022/11/09 07:07:45;;;;;;;;;;;;;;;12.47;65.28;100146.41;5075882;28;19916;-65
2022/11/09 07:10:12;;;;;;;;;;;;;;;12.49;65.36;100142.84;5071399;28;19939;-66
2022/11/09 07:12:37;;;;;;;;;;;;;;;12.49;64.94;100140.19;5076301;28;19942;-65
2022/11/09 07:15:03;;;;;;;;;;;;;;;12.50;64.90;100139.28;5076068;28;19924;-65
2022/11/09 07:17:29;;;;;;;;;;;;;;;12.48;64.93;100146.34;5076176;28;19967;-64
2022/11/09 07:19:54;;;;;;;;;;;;;;;12.31;65.41;100146.06;5073187;28;19920;-65
2022/11/09 07:22:20;;;;;;;;;;;;;;;12.47;65.33;100144.63;5077371;28;19928;-64
2022/11/09 07:24:45;;;;;;;;;;;;;;;12.56;65.23;100143.47;5075831;28;19974;-64
2022/11/09 07:27:10;;;;;;;;;;;;;;;12.60;64.89;100154.78;5093895;28;19959;-65
2022/11/09 07:29:35;;;;;;;;;;;;;;;12.63;64.65;100154.69;5096168;28;19971;-64
2022/11/09 07:32:00;;;;;;;;;;;;;;;12.69;64.74;100149.22;5096184;28;19923;-65
2022/11/09 07:34:26;;;;;;;;;;;;;;;12.76;64.19;100141.00;5092341;28;20011;-66
2022/11/09 07:36:54;;;;;;;;;;;;;;;12.77;64.04;100155.09;5075469;28;19927;-66
2022/11/09 07:39:19;;;;;;;;;;;;;;;12.85;64.20;100152.16;5075373;28;19986;-65
2022/11/09 07:41:47;;;;;;;;;;;;;;;12.98;66.05;100154.31;5076192;28;20322;-65
2022/11/09 07:44:17;;;;;;;;;;;;;;;13.05;64.32;100147.94;5074546;28;19921;-64
2022/11/09 07:46:42;;;;;;;;;;;;;;;13.20;63.81;100146.50;5075619;28;19923;-64
2022/11/09 07:49:07;;;;;;;;;;;;;;;13.16;64.18;100144.03;5075910;28;19928;-64
2022/11/09 07:51:33;;;;;;;;;;;;;;;13.30;62.97;100136.53;5075078;28;19924;-65
2022/11/09 07:53:59;;;;;;;;;;;;;;;13.24;63.13;100144.66;5075208;28;19927;-65
2022/11/09 07:56:24;;;;;;;;;;;;;;;13.38;63.43;100145.00;5075736;28;19920;-65
2022/11/09 07:58:49;;;;;;;;;;;;;;;13.42;63.66;100138.69;5074915;28;19927;-65
2022/11/09 08:01:14;;;;;;;;;;;;;;;13.35;62.86;100142.47;5075268;28;19987;-66
2022/11/09 08:03:40;;;;;;;;;;;;;;;13.54;63.01;100140.88;5074920;28;19920;-65
2022/11/09 08:06:05;;;;;;;;;;;;;;;13.51;63.62;100143.63;5075045;28;19927;-64
2022/11/09 08:08:30;;;;;;;;;;;;;;;13.65;62.43;100134.34;5075628;28;19927;-64
2022/11/09 08:10:56;;;;;;;;;;;;;;;13.75;61.76;100133.91;5075076;28;19925;-65
2022/11/09 08:13:21;;;;;;;;;;;;;;;13.89;61.43;100140.47;5074919;28;19936;-65
2022/11/09 08:15:47;;;;;;;;;;;;;;;13.94;61.83;100144.63;5075036;28;20039;-65
2022/11/09 08:18:14;;;;;;;;;;;;;;;14.05;60.86;100141.59;5074896;28;19927;-65
2022/11/09 08:20:39;;;;;;;;;;;;;;;14.00;61.35;100144.41;5074942;28;19920;-65
2022/11/09 08:23:05;;;;;;;;;;;;;;;14.03;62.00;100146.91;5074692;28;19974;-64
2022/11/09 08:25:34;;;;;;;;;;;;;;;14.10;60.96;100131.69;5074655;28;19923;-64
2022/11/09 08:27:59;;;;;;;;;;;;;;;14.09;61.27;100137.91;5074806;28;19924;-65
2022/11/09 08:30:25;;;;;;;;;;;;;;;14.11;61.01;100121.97;5074704;28;19916;-63
2022/11/09 08:32:50;;;;;;;;;;;;;;;14.25;61.81;100130.22;5074695;28;19917;-65
2022/11/09 08:35:18;;;;;;;;;;;;;;;14.09;60.28;100127.31;5074536;28;20482;-64
2022/11/09 08:37:45;;;;;;;;;;;;;;;14.38;60.81;100134.06;5074310;28;19916;-64
2022/11/09 08:40:11;;;;;;;;;;;;;;;14.44;61.94;100139.13;5074562;28;19921;-65
2022/11/09 08:42:36;;;;;;;;;;;;;;;14.50;62.12;100138.03;5074529;28;19981;-65
2022/11/09 08:45:02;;;;;;;;;;;;;;;14.58;60.49;100140.34;5074397;28;19920;-65
2022/11/09 08:47:28;;;;;;;;;;;;;;;14.49;60.78;100147.72;5074698;28;20329;-65
2022/11/09 08:49:53;;;;;;;;;;;;;;;14.48;60.47;100129.25;5074139;28;19924;-64
2022/11/09 08:52:18;;;;;;;;;;;;;;;14.60;59.75;100128.78;5075115;28;19920;-64
2022/11/09 08:54:44;;;;;;;;;;;;;;;14.56;60.42;100139.53;5076136;28;20407;-65
2022/11/09 08:57:09;;;;;;;;;;;;;;;14.57;60.23;100142.13;5074743;28;19916;-66
2022/11/09 08:59:34;;;;;;;;;;;;;;;14.66;59.07;100143.53;5074352;28;19916;-65
2022/11/09 09:02:00;;;;;;;;;;;;;;;14.75;59.60;100137.84;5074634;28;19943;-65
2022/11/09 09:04:25;;;;;;;;;;;;;;;14.74;59.17;100144.06;5075519;28;19950;-65
2022/11/09 09:06:51;;;;;;;;;;;;;;;14.90;59.49;100136.31;5074046;28;20392;-65
2022/11/09 09:09:16;;;;;;;;;;;;;;;15.00;59.25;100137.63;5074242;28;19974;-65
2022/11/09 09:11:41;;;;;;;;;;;;;;;15.15;59.69;100133.47;5072996;28;20268;-66
2022/11/09 09:14:06;;;;;;;;;;;;;;;15.16;58.64;100138.69;5074412;28;19920;-65
2022/11/09 09:16:31;;;;;;;;;;;;;;;15.27;58.66;100130.25;5073978;28;19920;-65
2022/11/09 09:18:57;;;;;;;;;;;;;;;15.31;58.86;100131.84;5073832;28;19969;-65
2022/11/09 09:21:22;;;;;;;;;;;;;;;15.33;58.12;100143.25;5073816;28;20295;-64
2022/11/09 09:23:48;;;;;;;;;;;;;;;15.35;57.92;100144.00;5073835;28;19963;-65
2022/11/09 09:26:13;;;;;;;;;;;;;;;15.33;57.46;100135.28;5074107;28;19927;-65
2022/11/09 09:28:39;;;;;;;;;;;;;;;15.47;58.60;100148.75;5072873;28;19928;-65
2022/11/09 09:31:04;;;;;;;;;;;;;;;15.59;56.34;100143.81;5072717;28;20295;-66
2022/11/09 09:33:30;;;;;;;;;;;;;;;15.57;56.89;100146.56;5073681;28;19916;-63
2022/11/09 09:35:56;;;;;;;;;;;;;;;15.66;57.53;100134.72;5072413;28;19932;-65
2022/11/09 09:38:21;;;;;;;;;;;;;;;15.63;56.52;100145.41;5073746;28;20023;-65
2022/11/09 09:40:50;;;;;;;;;;;;;;;15.81;57.49;100143.75;5072464;28;20011;-66
2022/11/09 09:43:22;;;;;;;;;;;;;;;15.93;57.00;100151.97;5073699;28;19917;-64
2022/11/09 09:45:50;;;;;;;;;;;;;;;15.97;56.25;100145.59;5074217;28;19970;-65
2022/11/09 09:48:34;;;;;;;;;;;;;;;16.07;57.79;100147.78;5073781;28;19920;-64
2022/11/09 09:51:08;;;;;;;;;;;;;;;15.92;56.73;100152.91;5073902;28;19921;-65
2022/11/09 09:53:33;;;;;;;;;;;;;;;16.00;56.51;100156.03;5072434;28;19917;-65
2022/11/09 09:56:02;;;;;;;;;;;;;;;16.00;56.18;100148.09;5073872;28;20386;-65
2022/11/09 09:58:30;;;;;;;;;;;;;;;16.21;55.83;100148.00;5073443;28;19922;-65
2022/11/09 10:00:57;;;;;;;;;;;;;;;16.35;55.66;100148.16;5073431;28;19920;-65
2022/11/09 10:03:22;;;;;;;;;;;;;;;16.45;55.11;100138.81;5073466;28;19916;-65
2022/11/09 10:06:10;;;;;;;;;;;;;;;16.72;54.81;100135.75;5072285;28;20345;-65
2022/11/09 10:08:50;;;;;;;;;;;;;;;16.91;54.08;100133.88;5073615;28;20438;-65
2022/11/09 10:11:23;;;;;;;;;;;;;;;16.91;54.35;100119.75;5073253;28;19916;-65
2022/11/09 10:14:03;;;;;;;;;;;;;;;17.02;56.06;100109.44;5072829;28;19920;-65
2022/11/09 10:16:40;;;;;;;;;;;;;;;17.06;54.15;100104.81;5073548;28;20006;-65
2022/11/09 10:19:15;;;;;;;;;;;;;;;17.15;54.51;100093.69;5073396;28;20010;-65
2022/11/09 10:21:48;;;;;;;;;;;;;;;17.13;53.78;100109.72;5073198;28;20007;-66
2022/11/09 10:24:26;;;;;;;;;;;;;;;17.01;54.73;100104.22;5073183;28;19920;-66
2022/11/09 10:26:54;;;;;;;;;;;;;;;17.14;52.95;100102.63;5076546;28;20096;-65
2022/11/09 10:29:38;;;;;;;;;;;;;;;17.08;53.16;100101.16;5076943;28;19923;-65
2022/11/09 10:32:09;;;;;;;;;;;;;;;17.05;53.95;100105.75;5075597;28;19956;-65
2022/11/09 10:34:39;;;;;;;;;;;;;;;16.94;54.35;100115.13;5077169;28;19924;-65
2022/11/09 10:37:15;;;;;;;;;;;;;;;16.68;54.35;100116.47;5076778;28;20007;-66
2022/11/09 10:39:43;;;;;;;;;;;;;;;16.85;54.46;100120.94;5075623;28;20268;-65
2022/11/09 10:42:09;;;;;;;;;;;;;;;16.88;54.41;100125.22;5076780;28;20375;-65
2022/11/09 10:44:34;;;;;;;;;;;;;;;17.18;53.08;100131.56;5076741;28;19927;-67
2022/11/09 10:47:01;;;;;;;;;;;;;;;17.13;53.23;100117.69;5076668;28;19917;-64
2022/11/09 10:49:26;;;;;;;;;;;;;;;17.11;53.23;100110.72;5076776;28;19928;-65
2022/11/09 10:51:51;;;;;;;;;;;;;;;17.28;53.32;100116.03;5076888;28;19928;-65
2022/11/09 10:54:34;;;;;;;;;;;;;;;17.34;53.32;100123.66;5075238;28;20279;-65
2022/11/09 10:57:02;;;;;;;;;;;;;;;17.43;52.75;100131.13;5076351;28;19916;-65
2022/11/09 10:59:43;;;;;;;;;;;;;;;17.53;52.84;100130.63;5077486;28;19917;-65
2022/11/09 11:02:29;;;;;;;;;;;;;;;17.57;53.15;100132.19;5077389;28;19964;-65
2022/11/09 11:05:06;;;;;;;;;;;;;;;17.56;53.08;100125.16;5073396;28;19967;-66
2022/11/09 11:07:34;;;;;;;;;;;;;;;17.52;52.84;100128.94;5074238;28;19920;-65
2022/11/09 11:10:09;;;;;;;;;;;;;;;17.62;52.96;100122.16;5094966;28;19920;-65
2022/11/09 11:12:34;;;;;;;;;;;;;;;17.55;52.64;100115.44;5075661;28;19924;-66
2022/11/09 11:14:59;;;;;;;;;;;;;;;17.56;52.81;100115.38;5073130;28;19924;-65
2022/11/09 11:17:35;;;;;;;;;;;;;;;17.31;53.57;100113.19;5075943;28;20252;-65
2022/11/09 11:20:26;;;;;;;;;;;;;;;17.27;53.70;100101.00;5075958;28;19940;-64
2022/11/09 11:23:04;;;;;;;;;;;;;;;17.23;54.03;100100.34;5073893;28;20372;-65
2022/11/09 11:25:30;;;;;;;;;;;;;;;17.23;54.11;100097.69;5075918;28;19916;-66
2022/11/09 11:27:59;;;;;;;;;;;;;;;17.27;53.67;100101.00;5074726;28;19983;-64
2022/11/09 11:30:27;;;;;;;;;;;;;;;17.16;53.68;100106.91;5075751;28;19917;-64
2022/11/09 11:32:53;;;;;;;;;;;;;;;17.20;53.66;100115.56;5071988;28;20364;-64
2022/11/09 11:35:21;;;;;;;;;;;;;;;17.22;53.98;100111.88;5075147;28;19927;-65
2022/11/09 11:37:57;;;;;;;;;;;;;;;17.26;54.13;100117.88;5072551;28;19970;-66
2022/11/09 11:40:28;;;;;;;;;;;;;;;17.18;53.86;100128.06;5073938;28;19931;-65
2022/11/09 11:42:57;;;;;;;;;;;;;;;17.16;54.64;100138.78;5077421;28;20402;-64
2022/11/09 11:45:23;;;;;;;;;;;;;;;17.16;55.15;100136.13;5086108;28;20505;-66
2022/11/09 11:48:14;;;;;;;;;;;;;;;16.94;54.75;100122.25;5083974;28;20006;-64
2022/11/09 11:50:48;;;;;;;;;;;;;;;16.95;55.08;100129.25;5094318;28;19965;-64
2022/11/09 11:53:16;;;;;;;;;;;;;;;16.95;54.67;100116.00;5075415;28;19917;-65
2022/11/09 11:55:57;;;;;;;;;;;;;;;16.90;54.82;100118.88;5074047;28;19921;-65
2022/11/09 11:58:33;;;;;;;;;;;;;;;16.88;55.14;100110.16;5075284;28;19927;-65
2022/11/09 12:01:02;;;;;;;;;;;;;;;16.75;55.15;100130.28;5074059;28;20022;-66
2022/11/09 12:03:50;;;;;;;;;;;;;;;16.74;55.46;100136.53;5074447;28;20288;-65
2022/11/09 12:06:22;;;;;;;;;;;;;;;16.50;55.82;100142.09;5075276;28;19923;-65
2022/11/09 12:08:48;;;;;;;;;;;;;;;16.58;56.40;100136.41;5074926;28;19916;-64
2022/11/09 12:11:28;;;;;;;;;;;;;;;16.54;55.91;100142.81;5075024;28;19917;-65
2022/11/09 12:14:12;;;;;;;;;;;;;;;16.50;56.46;100142.09;5075171;28;19962;-65
2022/11/09 12:16:41;;;;;;;;;;;;;;;16.45;56.75;100148.59;5073807;28;20360;-65
2022/11/09 12:19:20;;;;;;;;;;;;;;;16.42;57.01;100149.59;5074843;28;20002;-65
2022/11/09 12:21:57;;;;;;;;;;;;;;;16.42;56.83;100154.88;5075066;28;19962;-65
2022/11/09 12:24:31;;;;;;;;;;;;;;;16.48;56.76;100138.69;5074832;28;19920;-65
2022/11/09 12:27:20;;;;;;;;;;;;;;;16.48;56.23;100133.38;5074642;28;20371;-64
2022/11/09 12:29:56;;;;;;;;;;;;;;;16.31;56.56;100125.38;5075202;28;19938;-64
2022/11/09 12:32:21;;;;;;;;;;;;;;;16.42;56.41;100123.06;5074572;28;19922;-65
2022/11/09 12:34:52;;;;;;;;;;;;;;;16.46;56.07;100114.03;5074565;28;20011;-65
2022/11/09 12:37:23;;;;;;;;;;;;;;;16.46;56.63;100106.06;5074499;28;19924;-65
2022/11/09 12:39:52;;;;;;;;;;;;;;;16.70;55.92;100101.31;5074790;28;19917;-64